createdAt,value
2018-12-17T00:01:52.382Z,97850.03
2018-12-17T00:04:23.844Z,97857.63
2018-12-17T00:06:55.547Z,97856.22
2018-12-17T00:09:27.064Z,97862.56
2018-12-17T00:11:58.668Z,97864.37
2018-12-17T00:14:30.267Z,97868.05
2018-12-17T00:17:02.049Z,97871.12
2018-12-17T00:19:33.470Z,97872.34
2018-12-17T00:22:05.269Z,97873.34
2018-12-17T00:24:36.872Z,97873.59
2018-12-17T00:27:08.424Z,97871.44
2018-12-17T00:29:39.950Z,97871.56
2018-12-17T00:32:11.546Z,97872.80
2018-12-17T00:34:43.094Z,97876.63
2018-12-17T00:37:14.640Z,97879.77
2018-12-17T00:39:46.064Z,97883.72
2018-12-17T00:42:17.640Z,97878.87
2018-12-17T00:44:49.278Z,97883.56
2018-12-17T00:47:20.780Z,97880.03
2018-12-17T00:49:52.172Z,97890.89
2018-12-17T00:52:23.759Z,97887.63
2018-12-17T00:54:55.314Z,97889.75
2018-12-17T00:57:26.885Z,97892.40
2018-12-17T00:59:58.319Z,97899.50
2018-12-17T01:02:29.872Z,97896.34
2018-12-17T01:05:01.385Z,97905.11
2018-12-17T01:07:32.993Z,97902.80
2018-12-17T01:10:05.297Z,97912.22
2018-12-17T01:12:36.708Z,97914.06
2018-12-17T01:15:09.716Z,97914.31
2018-12-17T01:17:41.271Z,97914.81
2018-12-17T01:20:12.968Z,97914.14
2018-12-17T01:22:44.467Z,97910.56
2018-12-17T01:25:16.028Z,97920.78
2018-12-17T01:27:47.472Z,97918.28
2018-12-17T01:30:19.028Z,97924.55
2018-12-17T01:32:50.504Z,97922.55
2018-12-17T01:35:22.080Z,97935.06
2018-12-17T01:37:53.684Z,97932.79
2018-12-17T01:40:25.292Z,97934.55
2018-12-17T01:42:56.800Z,97932.82
2018-12-17T01:45:28.198Z,97934.01
2018-12-17T01:47:59.725Z,97944.41
2018-12-17T01:50:31.241Z,97942.13
2018-12-17T01:53:02.905Z,97945.11
2018-12-17T01:55:34.520Z,97944.00
2018-12-17T01:58:06.025Z,97945.81
2018-12-17T02:00:37.621Z,97942.97
2018-12-17T02:03:09.236Z,97941.39
2018-12-17T02:05:41.093Z,97947.70
2018-12-17T02:08:12.761Z,97947.21
2018-12-17T02:10:44.300Z,97944.94
2018-12-17T02:13:15.903Z,97941.47
2018-12-17T02:15:47.408Z,97943.25
2018-12-17T02:18:18.950Z,97948.80
2018-12-17T02:20:50.415Z,97941.52
2018-12-17T02:23:21.958Z,97941.03
2018-12-17T02:25:53.428Z,97942.55
2018-12-17T02:28:25.027Z,97944.88
2018-12-17T02:30:56.540Z,97938.91
2018-12-17T02:33:28.075Z,97938.48
2018-12-17T02:35:59.536Z,97940.70
2018-12-17T02:38:31.136Z,97947.89
2018-12-17T02:41:02.674Z,97950.45
2018-12-17T02:43:34.216Z,97951.17
2018-12-17T02:46:05.730Z,97954.98
2018-12-17T02:48:37.359Z,97951.88
2018-12-17T02:51:08.861Z,97950.87
2018-12-17T02:53:40.461Z,97957.16
2018-12-17T02:56:11.970Z,97960.67
2018-12-17T02:58:44.092Z,97955.58
2018-12-17T03:01:15.862Z,97958.98
2018-12-17T03:03:47.343Z,97958.03
2018-12-17T03:06:18.935Z,97956.57
2018-12-17T03:08:50.458Z,97958.63
2018-12-17T03:11:22.157Z,97962.94
2018-12-17T03:13:53.669Z,97962.48
2018-12-17T03:16:25.366Z,97965.84
2018-12-17T03:18:56.877Z,97965.09
2018-12-17T03:21:28.482Z,97963.22
2018-12-17T03:24:00.234Z,97961.22
2018-12-17T03:26:31.820Z,97963.16
2018-12-17T03:29:03.325Z,97960.18
2018-12-17T03:31:35.361Z,97963.02
2018-12-17T03:34:06.974Z,97965.59
2018-12-17T03:36:38.561Z,97967.61
2018-12-17T03:39:10.177Z,97978.03
2018-12-17T03:41:41.878Z,97977.41
2018-12-17T03:44:13.414Z,97975.19
2018-12-17T03:46:44.841Z,97982.72
2018-12-17T03:49:16.437Z,97979.23
2018-12-17T03:51:47.843Z,97986.53
2018-12-17T03:54:20.035Z,97983.16
2018-12-17T03:56:51.637Z,97991.49
2018-12-17T03:59:23.065Z,97993.62
2018-12-17T04:01:54.670Z,97999.45
2018-12-17T04:04:26.179Z,98003.25
2018-12-17T04:06:57.817Z,98007.48
2018-12-17T04:09:29.278Z,98007.13
2018-12-17T04:12:00.692Z,98003.16
2018-12-17T04:14:32.186Z,98006.77
2018-12-17T04:17:03.754Z,98012.55
2018-12-17T04:19:35.184Z,98017.20
2018-12-17T04:22:06.837Z,98022.02
2018-12-17T04:24:38.257Z,98024.61
2018-12-17T04:27:09.842Z,98021.98
2018-12-17T04:29:41.656Z,98026.63
2018-12-17T04:32:13.279Z,98024.30
2018-12-17T04:34:44.808Z,98026.25
2018-12-17T04:37:16.375Z,98023.20
2018-12-17T04:39:47.935Z,98019.53
2018-12-17T04:42:19.372Z,98018.87
2018-12-17T04:44:50.920Z,98018.86
2018-12-17T04:47:22.387Z,98027.06
2018-12-17T04:49:54.125Z,98033.70
2018-12-17T04:52:25.596Z,98037.45
2018-12-17T04:54:57.230Z,98048.36
2018-12-17T04:57:28.787Z,98046.59
2018-12-17T05:00:00.344Z,98056.87
2018-12-17T05:02:31.759Z,98052.66
2018-12-17T05:05:03.473Z,98055.41
2018-12-17T05:07:35.315Z,98058.45
2018-12-17T05:10:07.616Z,98058.27
2018-12-17T05:12:39.047Z,98060.45
2018-12-17T05:15:10.655Z,98066.77
2018-12-17T05:17:42.160Z,98062.94
2018-12-17T05:20:13.791Z,98067.63
2018-12-17T05:22:45.224Z,98075.34
2018-12-17T05:25:16.822Z,98075.70
2018-12-17T05:27:48.358Z,98083.55
2018-12-17T05:30:20.190Z,98088.47
2018-12-17T05:32:51.789Z,98088.33
2018-12-17T05:35:23.424Z,98091.28
2018-12-17T05:37:54.993Z,98100.72
2018-12-17T05:40:26.397Z,98102.91
2018-12-17T05:42:57.993Z,98105.72
2018-12-17T05:45:29.615Z,98109.52
2018-12-17T05:48:01.204Z,98113.42
2018-12-17T05:50:32.747Z,98117.97
2018-12-17T05:53:04.222Z,98119.44
2018-12-17T05:55:35.861Z,98122.78
2018-12-17T05:58:07.316Z,98126.27
2018-12-17T06:00:38.858Z,98125.73
2018-12-17T06:03:10.331Z,98132.00
2018-12-17T06:05:41.929Z,98132.83
2018-12-17T06:08:13.748Z,98138.86
2018-12-17T06:10:45.384Z,98144.83
2018-12-17T06:13:16.801Z,98142.81
2018-12-17T06:15:48.383Z,98152.44
2018-12-17T06:18:19.799Z,98151.71
2018-12-17T06:20:51.660Z,98153.91
2018-12-17T06:23:23.360Z,98153.22
2018-12-17T06:25:54.784Z,98158.30
2018-12-17T06:28:26.368Z,98160.02
2018-12-17T06:30:57.781Z,98166.63
2018-12-17T06:33:29.373Z,98165.60
2018-12-17T06:36:00.789Z,98172.70
2018-12-17T06:38:32.432Z,98177.23
2018-12-17T06:41:03.901Z,98180.09
2018-12-17T06:43:35.482Z,98180.70
2018-12-17T06:46:07.135Z,98181.02
2018-12-17T06:48:38.698Z,98188.84
2018-12-17T06:51:10.117Z,98193.05
2018-12-17T06:53:41.704Z,98189.08
2018-12-17T06:56:13.117Z,98193.05
2018-12-17T06:58:44.709Z,98192.28
2018-12-17T07:01:16.244Z,98194.53
2018-12-17T07:03:47.803Z,98200.77
2018-12-17T07:06:19.415Z,98201.20
2018-12-17T07:08:50.933Z,98211.98
2018-12-17T07:11:22.652Z,98224.75
2018-12-17T07:13:54.147Z,98233.52
2018-12-17T07:16:25.752Z,98236.85
2018-12-17T07:18:57.356Z,98240.28
2018-12-17T07:21:28.894Z,98248.68
2018-12-17T07:24:00.355Z,98251.32
2018-12-17T07:26:31.909Z,98250.73
2018-12-17T07:29:03.389Z,98256.23
2018-12-17T07:31:34.915Z,98259.48
2018-12-17T07:34:06.412Z,98264.19
2018-12-17T07:36:38.020Z,98254.67
2018-12-17T07:39:09.969Z,98259.06
2018-12-17T07:41:41.448Z,98273.13
2018-12-17T07:44:12.858Z,98283.31
2018-12-17T07:46:44.427Z,98284.74
2018-12-17T07:49:15.989Z,98288.50
2018-12-17T07:51:47.545Z,98288.22
2018-12-17T07:54:18.966Z,98292.65
2018-12-17T07:56:50.543Z,98293.23
2018-12-17T07:59:21.976Z,98290.44
2018-12-17T08:01:53.700Z,98300.03
2018-12-17T08:04:25.519Z,98303.05
2018-12-17T08:06:57.076Z,98305.12
2018-12-17T08:09:28.689Z,98309.55
2018-12-17T08:12:00.295Z,98310.47
2018-12-17T08:14:31.837Z,98318.98
2018-12-17T08:17:04.128Z,98317.27
2018-12-17T08:19:35.653Z,98326.28
2018-12-17T08:22:07.213Z,98327.89
2018-12-17T08:24:38.618Z,98328.82
2018-12-17T08:27:10.220Z,98328.48
2018-12-17T08:29:41.828Z,98330.52
2018-12-17T08:32:13.236Z,98332.75
2018-12-17T08:34:44.652Z,98332.98
2018-12-17T08:37:16.220Z,98342.27
2018-12-17T08:39:47.655Z,98346.87
2018-12-17T08:42:19.234Z,98351.86
2018-12-17T08:44:52.177Z,98350.02
2018-12-17T08:47:23.696Z,98357.92
2018-12-17T08:49:55.105Z,98357.80
2018-12-17T08:52:26.681Z,98364.13
2018-12-17T08:54:58.364Z,98368.86
2018-12-17T08:57:29.891Z,98370.56
2018-12-17T09:00:01.357Z,98358.81
2018-12-17T09:02:33.015Z,98358.29
2018-12-17T09:05:04.941Z,98362.97
2018-12-17T09:07:36.718Z,98363.09
2018-12-17T09:10:09.444Z,98363.01
2018-12-17T09:12:40.869Z,98366.07
2018-12-17T09:15:12.398Z,98382.98
2018-12-17T09:17:43.876Z,98385.31
2018-12-17T09:20:15.406Z,98389.09
2018-12-17T09:22:46.896Z,98389.42
2018-12-17T09:25:18.481Z,98381.83
2018-12-17T09:27:49.977Z,98380.28
2018-12-17T09:30:21.542Z,98378.09
2018-12-17T09:32:52.967Z,98375.13
2018-12-17T09:35:24.537Z,98371.81
2018-12-17T09:37:55.949Z,98386.16
2018-12-17T09:40:27.535Z,98391.92
2018-12-17T09:42:59.206Z,98384.72
2018-12-17T09:45:30.774Z,98379.42
2018-12-17T09:48:02.357Z,98375.77
2018-12-17T09:50:33.958Z,98390.34
2018-12-17T09:53:05.504Z,98392.35
2018-12-17T09:55:37.064Z,98406.67
2018-12-17T09:58:08.533Z,98410.53
2018-12-17T10:00:40.124Z,98414.59
2018-12-17T10:03:11.781Z,98404.62
2018-12-17T10:05:43.292Z,98406.11
2018-12-17T10:08:14.836Z,98410.06
2018-12-17T10:10:46.257Z,98406.80
2018-12-17T10:13:17.845Z,98409.47
2018-12-17T10:15:49.296Z,98396.86
2018-12-17T10:18:20.948Z,98395.80
2018-12-17T10:20:52.414Z,98403.75
2018-12-17T10:23:23.961Z,98410.36
2018-12-17T10:25:55.497Z,98404.42
2018-12-17T10:28:27.062Z,98403.53
2018-12-17T10:30:58.492Z,98403.86
2018-12-17T10:33:30.077Z,98408.63
2018-12-17T10:36:01.713Z,98413.26
2018-12-17T10:38:33.188Z,98414.13
2018-12-17T10:41:04.733Z,98409.59
2018-12-17T10:43:36.225Z,98409.59
2018-12-17T10:46:07.929Z,98416.31
2018-12-17T10:48:39.482Z,98417.27
2018-12-17T10:51:11.064Z,98413.52
2018-12-17T10:53:42.460Z,98412.73
2018-12-17T10:56:14.044Z,98411.61
2018-12-17T10:58:45.452Z,98410.11
2018-12-17T11:01:22.066Z,98410.17
2018-12-17T11:03:58.636Z,98406.02
2018-12-17T11:06:30.292Z,98393.63
2018-12-17T11:09:02.357Z,98398.55
2018-12-17T11:11:34.124Z,98395.63
2018-12-17T11:14:05.548Z,98395.34
2018-12-17T11:16:37.045Z,98396.21
2018-12-17T11:19:08.436Z,98391.16
2018-12-17T11:21:40.269Z,98387.84
2018-12-17T11:24:11.847Z,98381.22
2018-12-17T11:26:43.259Z,98381.32
2018-12-17T11:29:14.863Z,98382.30
2018-12-17T11:31:46.372Z,98382.20
2018-12-17T11:34:17.986Z,98388.55
2018-12-17T11:36:49.477Z,98381.84
2018-12-17T11:39:21.070Z,98376.87
2018-12-17T11:41:52.591Z,98367.00
2018-12-17T11:44:24.233Z,98372.57
2018-12-17T11:46:55.780Z,98370.33
2018-12-17T11:49:27.400Z,98367.38
2018-12-17T11:51:58.900Z,98366.81
2018-12-17T11:54:30.440Z,98364.64
2018-12-17T11:57:55.080Z,98366.58
2018-12-17T12:00:28.219Z,98367.63
2018-12-17T12:02:59.756Z,98368.46
2018-12-17T12:05:31.269Z,98367.25
2018-12-17T12:08:02.909Z,98364.48
2018-12-17T12:10:34.362Z,98367.66
2018-12-17T12:13:05.893Z,98367.73
2018-12-17T12:15:37.368Z,98375.02
2018-12-17T12:18:08.898Z,98371.02
2018-12-17T12:20:40.362Z,98377.15
2018-12-17T12:23:11.959Z,98376.61
2018-12-17T12:25:43.472Z,98375.69
2018-12-17T12:28:15.014Z,98380.63
2018-12-17T12:30:46.474Z,98376.72
2018-12-17T12:33:18.077Z,98385.53
2018-12-17T12:35:49.586Z,98379.97
2018-12-17T12:38:21.116Z,98387.42
2018-12-17T12:40:52.529Z,98404.32
2018-12-17T12:43:24.122Z,98404.55
2018-12-17T12:45:55.679Z,98405.18
2018-12-17T12:48:27.246Z,98401.36
2018-12-17T12:50:58.844Z,98404.11
2018-12-17T12:53:30.360Z,98410.05
2018-12-17T12:56:01.960Z,98411.86
2018-12-17T12:58:33.461Z,98406.15
2018-12-17T13:01:07.719Z,98412.95
2018-12-17T13:03:38.482Z,98404.08
2018-12-17T13:06:10.050Z,98405.27
2018-12-17T13:08:48.078Z,98403.30
2018-12-17T13:11:19.518Z,98409.73
2018-12-17T13:13:51.127Z,98410.91
2018-12-17T13:16:22.639Z,98414.81
2018-12-17T13:18:54.274Z,98408.89
2018-12-17T13:21:25.694Z,98414.58
2018-12-17T13:23:57.286Z,98414.38
2018-12-17T13:26:28.837Z,98418.38
2018-12-17T13:29:00.287Z,98414.68
2018-12-17T13:31:31.711Z,98420.22
2018-12-17T13:34:03.293Z,98424.89
2018-12-17T13:36:34.908Z,98429.20
2018-12-17T13:39:08.296Z,98426.91
2018-12-17T13:41:39.797Z,98431.33
2018-12-17T13:44:11.211Z,98429.43
2018-12-17T13:46:42.799Z,98432.14
2018-12-17T13:49:14.355Z,98436.19
2018-12-17T13:51:50.858Z,98444.23
2018-12-17T13:54:22.374Z,98452.68
2018-12-17T13:56:53.838Z,98459.88
2018-12-17T13:59:25.383Z,98459.97
2018-12-17T14:01:58.191Z,98458.16
2018-12-17T14:04:29.885Z,98464.45
2018-12-17T14:07:01.387Z,98459.36
2018-12-17T14:09:35.052Z,98471.58
2018-12-17T14:12:06.696Z,98468.18
2018-12-17T14:14:38.059Z,98474.60
2018-12-17T14:17:14.519Z,98471.86
2018-12-17T14:19:49.994Z,98484.77
2018-12-17T14:22:21.621Z,98487.77
2018-12-17T14:24:53.148Z,98487.63
2018-12-17T14:27:24.650Z,98499.35
2018-12-17T14:29:56.125Z,98495.69
2018-12-17T14:32:27.771Z,98499.45
2018-12-17T14:34:59.239Z,98499.02
2018-12-17T14:37:30.771Z,98498.24
2018-12-17T14:40:02.244Z,98502.53
2018-12-17T14:42:33.798Z,98512.96
2018-12-17T14:45:06.747Z,98515.06
2018-12-17T14:47:38.326Z,98510.14
2018-12-17T14:50:09.820Z,98516.02
2018-12-17T14:52:41.377Z,98518.80
2018-12-17T15:13:59.829Z,98549.91
2018-12-17T15:16:31.280Z,98551.74
2018-12-17T15:19:02.774Z,98555.42
2018-12-17T15:21:34.274Z,98558.77
2018-12-17T15:24:05.818Z,98562.17
2018-12-17T15:26:37.693Z,98568.83
2018-12-17T15:29:09.188Z,98569.31
2018-12-17T15:31:43.243Z,98568.05
2018-12-17T15:34:14.062Z,98575.34
2018-12-17T15:36:45.701Z,98571.20
2018-12-17T15:39:17.207Z,98576.93
2018-12-17T15:41:48.848Z,98586.09
2018-12-17T15:44:20.225Z,98596.09
2018-12-17T15:46:51.747Z,98599.70
2018-12-17T15:49:23.159Z,98603.45
2018-12-17T15:51:54.751Z,98607.84
2018-12-17T15:54:26.122Z,98609.83
2018-12-17T15:56:57.653Z,98618.53
2018-12-17T15:59:29.295Z,98622.48
2018-12-17T16:02:00.894Z,98622.41
2018-12-17T16:04:32.376Z,98625.34
2018-12-17T16:07:04.003Z,98633.52
2018-12-17T16:09:35.481Z,98630.39
2018-12-17T16:12:07.080Z,98635.22
2018-12-17T16:14:38.451Z,98647.06
2018-12-17T16:17:10.512Z,98653.65
2018-12-17T16:19:42.161Z,98656.57
2018-12-17T16:22:13.574Z,98661.13
2018-12-17T16:24:45.245Z,98667.16
2018-12-17T16:27:19.497Z,98666.87
2018-12-17T16:29:50.491Z,98668.92
2018-12-17T16:32:22.192Z,98670.84
2018-12-17T16:34:53.800Z,98674.87
2018-12-17T16:37:25.291Z,98676.39
2018-12-17T16:39:56.846Z,98678.20
2018-12-17T16:42:28.304Z,98690.94
2018-12-17T16:44:59.845Z,98692.21
2018-12-17T16:47:31.310Z,98697.28
2018-12-17T16:50:02.925Z,98697.73
2018-12-17T16:52:34.407Z,98707.63
2018-12-17T16:55:06.333Z,98707.97
2018-12-17T16:57:37.915Z,98708.58
2018-12-17T17:00:11.882Z,98710.30
2018-12-17T17:02:43.387Z,98712.78
2018-12-17T17:05:14.891Z,98714.88
2018-12-17T17:07:46.484Z,98721.48
2018-12-17T17:10:17.934Z,98721.69
2018-12-17T17:12:49.495Z,98720.58
2018-12-17T17:15:21.080Z,98723.44
2018-12-17T17:17:52.613Z,98726.26
2018-12-17T17:20:24.013Z,98732.48
2018-12-17T17:22:55.605Z,98736.02
2018-12-17T17:25:27.232Z,98744.14
2018-12-17T17:27:58.726Z,98743.32
2018-12-17T17:30:30.345Z,98750.17
2018-12-17T17:33:01.849Z,98759.75
2018-12-17T17:35:33.190Z,98757.75
2018-12-17T17:38:04.719Z,98755.92
2018-12-17T17:40:36.451Z,98759.28
2018-12-17T17:43:08.045Z,98762.45
2018-12-17T17:45:39.472Z,98767.05
2018-12-17T17:48:11.036Z,98755.53
2018-12-17T17:50:42.459Z,98753.56
2018-12-17T17:53:13.953Z,98755.58
2018-12-17T17:55:45.561Z,98762.11
2018-12-17T17:58:17.085Z,98762.38
2018-12-17T18:00:48.517Z,98772.33
2018-12-17T18:03:20.068Z,98767.77
2018-12-17T18:05:51.634Z,98772.71
2018-12-17T18:08:23.287Z,98781.48
2018-12-17T18:10:55.090Z,98788.61
2018-12-17T18:13:26.595Z,98784.27
2018-12-17T18:15:58.194Z,98791.81
2018-12-17T18:18:29.708Z,98795.01
2018-12-17T18:21:01.313Z,98793.16
2018-12-17T18:23:32.808Z,98799.52
2018-12-17T18:26:04.369Z,98801.47
2018-12-17T18:28:35.824Z,98808.45
2018-12-17T18:31:07.346Z,98820.81
2018-12-17T18:33:39.845Z,98824.59
2018-12-17T18:36:11.339Z,98821.03
2018-12-17T18:38:42.829Z,98820.59
2018-12-17T18:41:14.267Z,98826.45
2018-12-17T18:43:45.855Z,98821.81
2018-12-17T18:46:17.395Z,98813.84
2018-12-17T18:48:49.058Z,98812.59
2018-12-17T18:51:20.472Z,98816.92
2018-12-17T18:53:52.063Z,98820.75
2018-12-17T18:56:23.680Z,98820.13
2018-12-17T18:58:55.193Z,98820.77
2018-12-17T19:01:26.779Z,98818.69
2018-12-17T19:03:58.283Z,98819.25
2018-12-17T19:06:29.901Z,98822.09
2018-12-17T19:09:01.376Z,98824.41
2018-12-17T19:11:32.994Z,98829.73
2018-12-17T19:14:04.518Z,98834.27
2018-12-17T19:16:36.109Z,98837.53
2018-12-17T19:19:07.607Z,98842.59
2018-12-17T19:21:39.258Z,98843.19
2018-12-17T19:24:10.718Z,98857.76
2018-12-17T19:26:42.327Z,98855.49
2018-12-17T19:29:13.792Z,98849.56
2018-12-17T19:31:45.377Z,98847.41
2018-12-17T19:34:16.837Z,98849.37
2018-12-17T19:36:48.442Z,98852.00
2018-12-17T19:39:20.009Z,98853.44
2018-12-17T19:41:51.584Z,98848.27
2018-12-17T19:44:23.019Z,98859.19
2018-12-17T19:46:54.585Z,98869.56
2018-12-17T19:49:26.143Z,98869.44
2018-12-17T19:51:57.712Z,98866.00
2018-12-17T19:54:29.120Z,98869.00
2018-12-17T19:57:00.706Z,98875.84
2018-12-17T19:59:32.125Z,98884.97
2018-12-17T20:02:03.712Z,98885.79
2018-12-17T20:04:35.136Z,98884.83
2018-12-17T20:07:06.684Z,98885.32
2018-12-17T20:09:38.132Z,98887.66
2018-12-17T20:12:09.732Z,98885.38
2018-12-17T20:14:41.184Z,98880.67
2018-12-17T20:17:12.731Z,98884.53
2018-12-17T20:19:44.185Z,98891.94
2018-12-17T20:22:15.612Z,98898.02
2018-12-17T20:24:47.184Z,98890.45
2018-12-17T20:27:18.732Z,98890.17
2018-12-17T20:29:50.643Z,98898.19
2018-12-17T20:32:22.311Z,98906.52
2018-12-17T20:34:53.821Z,98904.63
2018-12-17T20:37:25.421Z,98914.21
2018-12-17T20:39:56.980Z,98917.04
2018-12-17T20:42:29.282Z,98919.16
2018-12-17T20:45:00.845Z,98920.47
2018-12-17T20:47:32.199Z,98924.59
2018-12-17T20:50:03.779Z,98924.61
2018-12-17T20:52:35.216Z,98927.30
2018-12-17T20:55:07.205Z,98929.61
2018-12-17T20:57:38.582Z,98929.95
2018-12-17T21:00:10.315Z,98936.95
2018-12-17T21:02:41.816Z,98936.96
2018-12-17T21:05:13.401Z,98938.14
2018-12-17T21:07:44.782Z,98938.50
2018-12-17T21:10:16.499Z,98935.39
2018-12-17T21:12:48.417Z,98934.95
2018-12-17T21:15:19.931Z,98931.41
2018-12-17T21:17:51.451Z,98926.06
2018-12-17T21:20:22.888Z,98928.02
2018-12-17T21:22:54.456Z,98931.84
2018-12-17T21:25:25.944Z,98933.70
2018-12-17T21:27:57.463Z,98933.59
2018-12-17T21:30:28.930Z,98938.05
2018-12-17T21:33:06.581Z,98934.83
2018-12-17T21:35:34.063Z,98939.81
2018-12-17T21:38:05.631Z,98944.73
2018-12-17T21:40:37.245Z,98943.41
2018-12-17T21:43:08.836Z,98943.47
2018-12-17T21:45:40.438Z,98946.42
2018-12-17T21:48:11.950Z,98944.38
2018-12-17T21:50:43.555Z,98951.34
2018-12-17T21:53:15.061Z,98944.81
2018-12-17T21:55:46.603Z,98951.80
2018-12-17T21:58:18.056Z,98953.94
2018-12-17T22:00:49.678Z,98950.43
2018-12-17T22:03:21.176Z,98956.27
2018-12-17T22:05:52.705Z,98952.61
2018-12-17T22:08:24.132Z,98955.39
2018-12-17T22:10:55.773Z,98959.27
2018-12-17T22:13:27.279Z,98954.70
2018-12-17T22:15:58.878Z,98958.16
2018-12-17T22:18:30.367Z,98958.99
2018-12-17T22:21:01.986Z,98965.39
2018-12-17T22:23:33.399Z,98971.66
2018-12-17T22:26:05.000Z,98974.89
2018-12-17T22:28:36.499Z,98973.27
2018-12-17T22:31:08.111Z,98975.17
2018-12-17T22:33:39.612Z,98977.13
2018-12-17T22:36:11.153Z,98977.01
2018-12-17T22:38:42.606Z,98980.59
2018-12-17T22:41:14.163Z,98979.80
2018-12-17T22:43:45.623Z,98976.73
2018-12-17T22:46:17.230Z,98979.03
2018-12-17T22:48:48.747Z,98980.54
2018-12-17T22:51:20.266Z,98982.71
2018-12-17T22:53:51.740Z,98985.19
2018-12-17T22:56:23.277Z,98990.60
2018-12-17T22:58:54.755Z,98982.31
2018-12-17T23:01:26.318Z,98980.61
2018-12-17T23:03:57.804Z,98976.02
2018-12-17T23:06:29.386Z,98975.77
2018-12-17T23:09:05.240Z,98979.01
2018-12-17T23:11:57.991Z,98980.67
2018-12-17T23:14:45.782Z,98977.64
2018-12-17T23:17:33.412Z,98980.45
2018-12-17T23:20:05.072Z,98987.45
2018-12-17T23:22:37.631Z,98989.17
2018-12-17T23:25:09.174Z,98990.57
2018-12-17T23:27:47.148Z,98990.36
2018-12-17T23:30:18.719Z,98991.44
2018-12-17T23:32:50.255Z,98990.17
2018-12-17T23:35:21.963Z,98986.31
2018-12-17T23:37:53.336Z,98984.20
2018-12-17T23:40:24.922Z,98989.19
2018-12-17T23:42:56.340Z,98984.49
2018-12-17T23:45:28.056Z,98983.98
2018-12-17T23:47:59.640Z,98979.39
2018-12-17T23:50:31.129Z,98977.94
2018-12-17T23:53:02.562Z,98984.36
2018-12-17T23:55:34.160Z,98982.23
2018-12-17T23:58:05.756Z,98977.09
